createdAt,value
2024-05-09T00:01:58.346Z,8.19
2024-05-09T00:04:29.856Z,8.15
2024-05-09T00:07:01.835Z,8.13
2024-05-09T00:09:33.350Z,8.08
2024-05-09T00:12:05.330Z,8.05
2024-05-09T00:14:39.353Z,8.01
2024-05-09T00:17:10.988Z,7.99
2024-05-09T00:19:44.056Z,7.95
2024-05-09T00:22:15.490Z,7.90
2024-05-09T00:24:49.871Z,7.88
2024-05-09T00:27:22.532Z,7.82
2024-05-09T00:29:54.184Z,7.78
2024-05-09T00:32:25.580Z,7.69
2024-05-09T00:34:57.652Z,7.66
2024-05-09T00:37:29.464Z,7.66
2024-05-09T00:40:01.209Z,7.64
2024-05-09T00:42:32.666Z,7.60
2024-05-09T00:45:04.076Z,7.56
2024-05-09T00:47:36.138Z,7.53
2024-05-09T00:50:15.960Z,7.50
2024-05-09T00:52:53.950Z,7.45
2024-05-09T00:55:25.931Z,7.38
2024-05-09T00:57:57.529Z,7.36
2024-05-09T01:00:35.899Z,7.33
2024-05-09T01:03:13.032Z,7.30
2024-05-09T01:05:46.386Z,7.27
2024-05-09T01:08:20.953Z,7.23
2024-05-09T01:10:52.642Z,7.21
2024-05-09T01:13:24.235Z,7.15
2024-05-09T01:15:57.923Z,7.11
2024-05-09T01:18:30.117Z,7.06
2024-05-09T01:21:04.374Z,7.00
2024-05-09T01:23:38.764Z,6.92
2024-05-09T01:26:10.299Z,6.88
2024-05-09T01:28:41.765Z,6.80
2024-05-09T01:31:15.783Z,6.75
2024-05-09T01:33:47.329Z,6.69
2024-05-09T01:36:19.184Z,6.64
2024-05-09T01:38:50.593Z,6.59
2024-05-09T01:41:24.314Z,6.54
2024-05-09T01:43:55.917Z,6.52
2024-05-09T01:46:28.148Z,6.46
2024-05-09T01:48:59.829Z,6.41
2024-05-09T01:51:31.135Z,6.35
2024-05-09T01:54:03.067Z,6.31
2024-05-09T01:56:34.656Z,6.24
2024-05-09T01:59:09.504Z,6.17
2024-05-09T02:01:56.314Z,6.12
2024-05-09T02:04:30.827Z,6.07
2024-05-09T02:07:02.529Z,6.01
2024-05-09T02:09:33.928Z,5.96
2024-05-09T02:12:05.968Z,5.91
2024-05-09T02:14:37.584Z,5.86
2024-05-09T02:17:08.959Z,5.83
2024-05-09T02:19:40.422Z,5.76
2024-05-09T02:22:11.853Z,5.74
2024-05-09T02:24:43.695Z,5.67
2024-05-09T02:27:15.199Z,5.62
2024-05-09T02:29:47.243Z,5.58
2024-05-09T02:32:18.687Z,5.50
2024-05-09T02:34:50.542Z,5.46
2024-05-09T02:37:21.797Z,5.40
2024-05-09T02:39:53.316Z,5.33
2024-05-09T02:42:24.719Z,5.28
2024-05-09T02:44:56.408Z,5.23
2024-05-09T02:47:28.000Z,5.16
2024-05-09T02:49:59.850Z,5.13
2024-05-09T02:52:31.329Z,5.08
2024-05-09T02:55:02.817Z,5.03
2024-05-09T02:57:34.025Z,4.99
2024-05-09T03:00:09.698Z,4.95
2024-05-09T03:02:46.006Z,4.90
2024-05-09T03:05:17.484Z,4.85
2024-05-09T03:07:49.133Z,4.80
2024-05-09T03:10:25.584Z,4.75
2024-05-09T03:13:00.517Z,4.70
2024-05-09T03:15:32.828Z,4.67
2024-05-09T03:18:05.415Z,4.62
2024-05-09T03:20:37.687Z,4.60
2024-05-09T03:23:10.347Z,4.61
2024-05-09T03:25:44.275Z,4.59
2024-05-09T03:28:15.712Z,4.58
2024-05-09T03:30:47.307Z,4.55
2024-05-09T03:33:20.278Z,4.51
2024-05-09T03:35:52.315Z,4.50
2024-05-09T03:38:26.117Z,4.47
2024-05-09T03:40:58.052Z,4.43
2024-05-09T03:43:29.407Z,4.42
2024-05-09T03:46:00.852Z,4.39
2024-05-09T03:48:34.996Z,4.38
2024-05-09T03:51:07.931Z,4.35
2024-05-09T03:53:39.488Z,4.34
2024-05-09T03:56:11.315Z,4.31
2024-05-09T03:58:42.873Z,4.29
2024-05-09T04:01:14.235Z,4.25
2024-05-09T04:03:46.212Z,4.20
2024-05-09T04:06:23.352Z,4.23
2024-05-09T04:08:54.916Z,4.22
2024-05-09T04:11:26.346Z,4.22
2024-05-09T04:13:57.930Z,4.24
2024-05-09T04:16:32.636Z,4.24
2024-05-09T04:19:04.012Z,4.27
2024-05-09T04:21:35.732Z,4.30
2024-05-09T04:24:08.090Z,4.33
2024-05-09T04:26:39.424Z,4.36
2024-05-09T04:29:11.484Z,4.41
2024-05-09T04:31:42.939Z,4.47
2024-05-09T04:34:14.414Z,4.52
2024-05-09T04:36:48.247Z,4.58
2024-05-09T04:39:22.753Z,4.65
2024-05-09T04:41:53.989Z,4.72
2024-05-09T04:44:25.475Z,4.79
2024-05-09T04:46:56.902Z,4.87
2024-05-09T04:49:28.493Z,4.96
2024-05-09T04:51:59.788Z,5.04
2024-05-09T04:54:36.220Z,5.15
2024-05-09T04:57:08.584Z,5.25
2024-05-09T04:59:40.274Z,5.35
2024-05-09T05:02:12.122Z,5.44
2024-05-09T05:04:43.777Z,5.57
2024-05-09T05:07:15.456Z,5.69
2024-05-09T05:09:46.753Z,5.80
2024-05-09T05:12:32.330Z,5.92
2024-05-09T05:15:04.242Z,6.06
2024-05-09T05:17:35.890Z,6.19
2024-05-09T05:20:12.622Z,6.32
2024-05-09T05:22:47.769Z,6.46
2024-05-09T05:25:19.105Z,6.59
2024-05-09T05:27:55.384Z,6.75
2024-05-09T05:30:32.409Z,6.90
2024-05-09T05:33:07.624Z,7.04
2024-05-09T05:35:39.577Z,7.19
2024-05-09T05:38:13.824Z,7.33
2024-05-09T05:40:45.482Z,7.47
2024-05-09T05:43:20.365Z,7.59
2024-05-09T05:45:52.136Z,7.77
2024-05-09T05:48:23.712Z,7.92
2024-05-09T05:50:55.341Z,8.08
2024-05-09T05:53:26.845Z,8.21
2024-05-09T05:55:58.490Z,8.37
2024-05-09T05:58:32.329Z,8.54
2024-05-09T06:01:03.924Z,8.69
2024-05-09T06:03:38.453Z,8.84
2024-05-09T06:06:14.394Z,9.00
2024-05-09T06:08:45.896Z,9.13
2024-05-09T06:11:20.364Z,9.25
2024-05-09T06:13:51.715Z,9.41
2024-05-09T06:16:24.431Z,9.58
2024-05-09T06:18:55.811Z,9.70
2024-05-09T06:21:27.470Z,9.86
2024-05-09T06:24:02.559Z,9.97
2024-05-09T06:26:36.018Z,10.13
2024-05-09T06:29:07.508Z,10.26
2024-05-09T06:31:43.050Z,10.39
2024-05-09T06:34:14.607Z,10.54
2024-05-09T06:36:48.812Z,10.65
2024-05-09T06:39:20.472Z,10.77
2024-05-09T06:41:52.119Z,10.87
2024-05-09T06:44:26.306Z,11.00
2024-05-09T06:46:59.642Z,11.13
2024-05-09T06:49:34.220Z,11.25
2024-05-09T06:52:06.764Z,11.39
2024-05-09T06:54:38.220Z,11.53
2024-05-09T06:57:10.891Z,11.69
2024-05-09T06:59:42.297Z,11.84
2024-05-09T07:02:13.997Z,12.01
2024-05-09T07:04:45.905Z,12.19
2024-05-09T07:07:17.375Z,12.34
2024-05-09T07:09:51.119Z,12.49
2024-05-09T07:12:24.816Z,12.67
2024-05-09T07:14:58.574Z,12.84
2024-05-09T07:17:30.020Z,12.97
2024-05-09T07:20:01.680Z,13.03
2024-05-09T07:22:35.921Z,13.15
2024-05-09T07:25:08.193Z,13.22
2024-05-09T07:27:41.890Z,13.32
2024-05-09T07:30:20.350Z,13.52
2024-05-09T07:32:58.751Z,13.74
2024-05-09T07:35:31.191Z,13.94
2024-05-09T07:38:03.315Z,14.15
2024-05-09T07:40:36.896Z,14.25
2024-05-09T07:43:11.363Z,14.33
2024-05-09T07:45:51.279Z,14.55
2024-05-09T07:50:00.703Z,14.79
2024-05-09T07:53:55.859Z,15.04
2024-05-09T07:56:30.089Z,15.13
2024-05-09T07:59:01.808Z,15.17
2024-05-09T08:01:33.606Z,15.23
2024-05-09T08:04:05.347Z,15.37
2024-05-09T08:06:36.905Z,15.55
2024-05-09T08:09:13.774Z,15.72
2024-05-09T08:11:48.497Z,15.93
2024-05-09T08:14:20.148Z,16.21
2024-05-09T08:16:54.162Z,16.45
2024-05-09T08:19:25.750Z,16.66
2024-05-09T08:21:57.278Z,16.82
2024-05-09T08:24:28.740Z,16.98
2024-05-09T08:27:00.384Z,17.17
2024-05-09T08:29:32.011Z,17.31
2024-05-09T08:32:08.332Z,17.48
2024-05-09T08:34:38.327Z,17.61
2024-05-09T08:37:15.502Z,17.74
2024-05-09T08:39:52.193Z,17.93
2024-05-09T08:42:25.569Z,18.07
2024-05-09T08:44:57.634Z,18.16
2024-05-09T08:47:31.877Z,18.24
2024-05-09T08:50:13.685Z,18.38
2024-05-09T08:52:56.942Z,18.58
2024-05-09T08:55:30.749Z,18.82
2024-05-09T08:58:04.329Z,18.95
2024-05-09T09:00:37.632Z,19.09
2024-05-09T09:03:12.870Z,19.21
2024-05-09T09:05:54.398Z,19.29
2024-05-09T09:08:27.072Z,19.41
2024-05-09T09:11:00.094Z,19.51
2024-05-09T09:13:31.620Z,19.65
2024-05-09T09:16:03.745Z,19.87
2024-05-09T09:18:35.844Z,20.08
2024-05-09T09:21:12.411Z,20.17
2024-05-09T09:23:44.072Z,20.27
2024-05-09T09:26:19.236Z,20.35
2024-05-09T09:28:50.955Z,20.54
2024-05-09T09:31:23.075Z,20.62
2024-05-09T09:33:54.916Z,20.63
2024-05-09T09:36:33.730Z,20.53
2024-05-09T09:39:06.606Z,20.53
2024-05-09T09:41:42.732Z,20.56
2024-05-09T09:44:12.987Z,20.70
2024-05-09T09:46:45.053Z,20.88
2024-05-09T09:49:17.735Z,21.08
2024-05-09T09:51:50.179Z,21.34
2024-05-09T09:54:22.120Z,21.59
2024-05-09T09:56:55.665Z,21.82
2024-05-09T09:59:28.866Z,22.08
2024-05-09T10:02:02.764Z,22.41
2024-05-09T10:04:34.588Z,22.90
2024-05-09T10:07:09.216Z,23.62
2024-05-09T10:09:41.091Z,24.21
2024-05-09T10:12:14.431Z,24.57
2024-05-09T10:14:50.700Z,24.74
2024-05-09T10:17:21.315Z,24.79
2024-05-09T10:20:11.837Z,24.62
2024-05-09T10:22:53.000Z,24.27
2024-05-09T10:25:25.030Z,24.10
2024-05-09T10:27:58.402Z,23.99
2024-05-09T10:30:35.717Z,23.87
2024-05-09T10:33:12.270Z,23.65
2024-05-09T10:35:53.634Z,23.54
2024-05-09T10:38:26.688Z,23.45
2024-05-09T10:41:00.846Z,23.31
2024-05-09T10:43:34.150Z,22.84
2024-05-09T10:46:06.566Z,22.39
2024-05-09T10:48:38.963Z,22.17
2024-05-09T10:51:11.387Z,22.12
2024-05-09T10:53:46.834Z,21.99
2024-05-09T10:56:18.519Z,22.01
2024-05-09T10:58:54.521Z,22.05
2024-05-09T11:01:24.501Z,21.84
2024-05-09T11:03:57.338Z,21.66
2024-05-09T11:06:31.444Z,21.66
2024-05-09T11:09:03.021Z,21.68
2024-05-09T11:11:34.370Z,21.67
2024-05-09T11:14:15.232Z,21.65
2024-05-09T11:16:46.602Z,21.73
2024-05-09T11:19:19.562Z,21.71
2024-05-09T11:21:54.319Z,21.68
2024-05-09T11:24:26.221Z,21.75
2024-05-09T11:26:58.835Z,21.68
2024-05-09T11:29:41.000Z,21.65
2024-05-09T11:32:14.759Z,21.72
2024-05-09T11:34:46.159Z,21.73
2024-05-09T11:37:17.744Z,21.76
2024-05-09T11:39:49.890Z,21.67
2024-05-09T11:42:22.343Z,21.51
2024-05-09T11:44:53.694Z,21.52
2024-05-09T11:47:25.418Z,21.58
2024-05-09T11:49:57.234Z,21.53
2024-05-09T11:52:28.858Z,21.36
2024-05-09T11:55:01.025Z,21.32
2024-05-09T11:57:32.601Z,21.34
2024-05-09T12:00:07.372Z,21.40
2024-05-09T12:02:43.708Z,21.51
2024-05-09T12:05:18.122Z,21.47
2024-05-09T12:07:51.089Z,21.52
2024-05-09T12:10:31.953Z,21.46
2024-05-09T12:13:07.208Z,21.42
2024-05-09T12:15:39.443Z,21.42
2024-05-09T12:18:13.962Z,21.47
2024-05-09T12:20:47.844Z,21.48
2024-05-09T12:23:19.361Z,21.48
2024-05-09T12:25:50.802Z,21.46
2024-05-09T12:28:23.049Z,21.33
2024-05-09T12:30:57.224Z,21.17
2024-05-09T12:33:29.552Z,21.16
2024-05-09T12:36:03.351Z,21.20
2024-05-09T12:38:34.626Z,21.24
2024-05-09T12:41:06.281Z,21.21
2024-05-09T12:43:37.760Z,21.25
2024-05-09T12:46:09.441Z,21.38
2024-05-09T12:48:41.297Z,21.42
2024-05-09T12:51:13.525Z,21.40
2024-05-09T12:53:44.833Z,21.31
2024-05-09T12:56:16.562Z,21.23
2024-05-09T12:58:49.923Z,21.16
2024-05-09T13:01:21.354Z,21.10
2024-05-09T13:03:55.545Z,20.97
2024-05-09T13:06:27.378Z,20.82
2024-05-09T13:08:58.831Z,20.78
2024-05-09T13:11:30.310Z,20.79
2024-05-09T13:14:04.204Z,20.79
2024-05-09T13:16:37.889Z,20.73
2024-05-09T13:19:09.224Z,20.80
2024-05-09T13:21:40.738Z,20.91
2024-05-09T13:24:12.278Z,20.98
2024-05-09T13:26:44.007Z,21.11
2024-05-09T13:29:15.724Z,21.16
2024-05-09T13:31:47.484Z,21.25
2024-05-09T13:34:18.993Z,21.30
2024-05-09T13:36:53.060Z,21.31
2024-05-09T13:39:24.535Z,21.19
2024-05-09T13:41:56.222Z,21.07
2024-05-09T13:44:27.837Z,21.06
2024-05-09T13:46:59.403Z,21.16
2024-05-09T13:49:31.318Z,21.33
2024-05-09T13:52:04.747Z,21.47
2024-05-09T13:54:38.084Z,21.61
2024-05-09T13:57:09.839Z,21.75
2024-05-09T13:59:41.508Z,21.87
2024-05-09T14:02:13.183Z,21.95
2024-05-09T14:04:47.021Z,22.04
2024-05-09T14:07:21.033Z,22.15
2024-05-09T14:09:53.011Z,22.30
2024-05-09T14:12:24.646Z,22.43
2024-05-09T14:14:56.608Z,22.56
2024-05-09T14:17:30.468Z,22.68
2024-05-09T14:20:01.988Z,22.78
2024-05-09T14:22:33.487Z,22.86
2024-05-09T14:25:07.215Z,22.88
2024-05-09T14:27:41.057Z,22.94
2024-05-09T14:30:22.106Z,22.92
2024-05-09T14:32:57.648Z,22.97
2024-05-09T14:35:29.011Z,23.02
2024-05-09T14:38:00.734Z,23.08
2024-05-09T14:43:07.920Z,23.04
2024-05-09T14:45:43.490Z,23.08
2024-05-09T14:48:16.577Z,23.12
2024-05-09T14:50:48.236Z,23.16
2024-05-09T14:53:26.432Z,23.18
2024-05-09T14:55:58.146Z,23.18
2024-05-09T14:58:29.928Z,23.20
2024-05-09T15:01:01.519Z,23.16
2024-05-09T15:03:33.082Z,23.04
2024-05-09T15:06:05.226Z,23.01
2024-05-09T15:08:36.941Z,23.07
2024-05-09T15:11:09.000Z,23.13
2024-05-09T15:13:40.472Z,23.17
2024-05-09T15:16:12.097Z,23.21
2024-05-09T15:18:46.421Z,23.17
2024-05-09T15:21:18.281Z,23.09
2024-05-09T15:23:49.918Z,23.05
2024-05-09T15:26:24.596Z,23.08
2024-05-09T15:28:55.805Z,23.05
2024-05-09T15:31:27.393Z,22.95
2024-05-09T15:33:58.986Z,22.89
2024-05-09T15:36:30.422Z,22.91
2024-05-09T15:39:02.285Z,22.92
2024-05-09T15:41:33.954Z,22.86
2024-05-09T15:44:05.511Z,22.82
2024-05-09T15:46:37.855Z,22.68
2024-05-09T15:49:11.083Z,22.51
2024-05-09T15:51:42.868Z,22.50
2024-05-09T15:54:16.685Z,22.53
2024-05-09T15:56:50.810Z,22.50
2024-05-09T15:59:22.647Z,22.51
2024-05-09T16:01:55.495Z,22.50
2024-05-09T16:04:27.445Z,22.50
2024-05-09T16:06:59.367Z,22.45
2024-05-09T16:09:31.309Z,22.39
2024-05-09T16:12:02.645Z,22.39
2024-05-09T16:14:34.127Z,22.29
2024-05-09T16:17:05.892Z,22.23
2024-05-09T16:19:37.217Z,22.17
2024-05-09T16:22:08.571Z,22.17
2024-05-09T16:24:40.447Z,22.14
2024-05-09T16:27:11.933Z,22.01
2024-05-09T16:29:44.691Z,21.86
2024-05-09T16:32:16.263Z,21.69
2024-05-09T16:34:48.191Z,21.54
2024-05-09T16:37:19.869Z,21.46
2024-05-09T16:39:51.143Z,21.44
2024-05-09T16:42:22.729Z,21.41
2024-05-09T16:44:54.135Z,21.37
2024-05-09T16:47:29.416Z,21.33
2024-05-09T16:50:00.900Z,21.28
2024-05-09T16:52:32.811Z,21.17
2024-05-09T16:55:04.974Z,21.06
2024-05-09T16:57:36.450Z,20.95
2024-05-09T17:00:17.719Z,20.90
2024-05-09T17:02:56.577Z,20.87
2024-05-09T17:05:29.344Z,20.80
2024-05-09T17:08:01.384Z,20.70
2024-05-09T17:10:35.061Z,20.68
2024-05-09T17:13:08.388Z,20.76
2024-05-09T17:15:40.724Z,21.43
2024-05-09T17:18:12.846Z,21.83
2024-05-09T17:20:46.968Z,21.92
2024-05-09T17:23:18.360Z,21.88
2024-05-09T17:25:52.229Z,21.91
2024-05-09T17:28:24.282Z,22.00
2024-05-09T17:30:56.175Z,22.00
2024-05-09T17:33:27.914Z,22.28
2024-05-09T17:35:59.438Z,22.13
2024-05-09T17:38:30.888Z,22.32
2024-05-09T17:41:03.612Z,22.18
2024-05-09T17:43:35.291Z,21.93
2024-05-09T17:46:08.073Z,21.67
2024-05-09T17:48:39.688Z,21.39
2024-05-09T17:51:11.268Z,21.28
2024-05-09T17:53:42.928Z,20.93
2024-05-09T17:56:14.635Z,20.67
2024-05-09T17:58:48.742Z,20.44
2024-05-09T18:01:20.575Z,20.18
2024-05-09T18:03:52.886Z,19.87
2024-05-09T18:06:24.884Z,19.66
2024-05-09T18:08:59.891Z,19.42
2024-05-09T18:11:31.335Z,19.16
2024-05-09T18:14:02.796Z,18.90
2024-05-09T18:16:35.083Z,18.64
2024-05-09T18:19:06.774Z,18.39
2024-05-09T18:21:38.695Z,18.18
2024-05-09T18:24:10.693Z,18.11
2024-05-09T18:26:42.836Z,18.06
2024-05-09T18:29:15.330Z,18.02
2024-05-09T18:31:50.422Z,17.99
2024-05-09T18:34:22.210Z,17.95
2024-05-09T18:36:53.784Z,17.89
2024-05-09T18:39:25.800Z,17.82
2024-05-09T18:41:59.643Z,17.75
2024-05-09T18:44:31.336Z,17.66
2024-05-09T18:47:03.976Z,17.56
2024-05-09T18:49:36.024Z,17.32
2024-05-09T18:52:09.097Z,16.93
2024-05-09T18:54:40.788Z,16.51
2024-05-09T18:57:12.648Z,16.11
2024-05-09T18:59:44.233Z,15.71
2024-05-09T19:02:16.353Z,15.30
2024-05-09T19:04:48.296Z,14.94
2024-05-09T19:07:24.587Z,14.59
2024-05-09T19:09:55.940Z,14.27
2024-05-09T19:12:29.569Z,13.96
2024-05-09T19:15:01.118Z,13.67
2024-05-09T19:17:34.133Z,13.42
2024-05-09T19:20:09.149Z,13.19
2024-05-09T19:22:45.752Z,12.97
2024-05-09T19:25:17.520Z,12.77
2024-05-09T19:27:49.234Z,12.58
2024-05-09T19:30:29.744Z,12.36
2024-05-09T19:33:10.363Z,12.15
2024-05-09T19:35:43.808Z,11.97
2024-05-09T19:38:15.737Z,11.84
2024-05-09T19:40:47.289Z,11.70
2024-05-09T19:43:19.164Z,11.56
2024-05-09T19:45:51.430Z,11.42
2024-05-09T19:48:26.315Z,11.29
2024-05-09T19:51:00.455Z,11.16
2024-05-09T19:53:32.446Z,11.04
2024-05-09T19:56:03.965Z,10.92
2024-05-09T19:58:35.636Z,10.82
2024-05-09T20:01:07.773Z,10.70
2024-05-09T20:03:39.421Z,10.60
2024-05-09T20:06:11.322Z,10.48
2024-05-09T20:08:43.112Z,10.38
2024-05-09T20:11:16.188Z,10.28
2024-05-09T20:13:47.776Z,10.19
2024-05-09T20:16:19.688Z,10.11
2024-05-09T20:18:51.436Z,10.02
2024-05-09T20:21:24.463Z,9.93
2024-05-09T20:23:56.170Z,9.84
2024-05-09T20:26:29.944Z,9.73
2024-05-09T20:29:03.696Z,9.63
2024-05-09T20:31:37.597Z,9.54
2024-05-09T20:34:09.198Z,9.46
2024-05-09T20:36:40.522Z,9.37
2024-05-09T20:39:12.407Z,9.31
2024-05-09T20:41:45.090Z,9.22
2024-05-09T20:44:17.305Z,9.12
2024-05-09T20:46:49.207Z,9.05
2024-05-09T20:49:23.423Z,8.95
2024-05-09T20:51:55.655Z,8.87
2024-05-09T20:54:27.591Z,8.79
2024-05-09T20:56:59.138Z,8.72
2024-05-09T20:59:30.527Z,8.66
2024-05-09T21:02:02.100Z,8.60
2024-05-09T21:04:37.526Z,8.53
2024-05-09T21:07:09.627Z,8.44
2024-05-09T21:09:41.102Z,8.36
2024-05-09T21:12:12.994Z,8.30
2024-05-09T21:14:44.866Z,8.23
2024-05-09T21:17:16.636Z,8.17
2024-05-09T21:19:49.130Z,8.10
2024-05-09T21:22:20.678Z,8.02
2024-05-09T21:24:52.440Z,7.94
2024-05-09T21:27:25.286Z,7.88
2024-05-09T21:29:56.742Z,7.79
2024-05-09T21:32:28.753Z,7.71
2024-05-09T21:35:00.227Z,7.64
2024-05-09T21:37:31.868Z,7.57
2024-05-09T21:40:06.819Z,7.52
2024-05-09T21:42:40.620Z,7.47
2024-05-09T21:45:12.377Z,7.41
2024-05-09T21:47:46.551Z,7.36
2024-05-09T21:50:27.623Z,7.29
2024-05-09T21:53:03.655Z,7.23
2024-05-09T21:55:35.802Z,7.16
2024-05-09T21:58:10.408Z,7.08
2024-05-09T22:00:45.210Z,7.04
2024-05-09T22:03:17.315Z,6.97
2024-05-09T22:05:48.878Z,6.89
2024-05-09T22:08:20.357Z,6.85
2024-05-09T22:10:52.111Z,6.74
2024-05-09T22:13:26.320Z,6.70
2024-05-09T22:15:57.620Z,6.67
2024-05-09T22:18:29.187Z,6.61
2024-05-09T22:21:00.642Z,6.54
2024-05-09T22:23:32.254Z,6.49
2024-05-09T22:26:03.725Z,6.42
2024-05-09T22:28:35.041Z,6.37
2024-05-09T22:31:09.307Z,6.30
2024-05-09T22:33:42.729Z,6.23
2024-05-09T22:36:18.614Z,6.16
2024-05-09T22:38:53.241Z,6.11
2024-05-09T22:41:29.768Z,6.04
2024-05-09T22:44:01.960Z,6.00
2024-05-09T22:46:33.946Z,5.92
2024-05-09T22:49:06.785Z,5.87
2024-05-09T22:51:40.813Z,5.83
2024-05-09T22:54:12.643Z,5.76
2024-05-09T22:56:44.010Z,5.74
2024-05-09T22:59:15.425Z,5.68
2024-05-09T23:01:46.999Z,5.64
2024-05-09T23:04:18.819Z,5.60
2024-05-09T23:06:51.631Z,5.58
2024-05-09T23:09:22.890Z,5.52
2024-05-09T23:11:54.852Z,5.49
2024-05-09T23:14:26.234Z,5.43
2024-05-09T23:16:58.222Z,5.37
2024-05-09T23:19:29.515Z,5.30
2024-05-09T23:22:00.915Z,5.24
2024-05-09T23:24:35.799Z,5.22
2024-05-09T23:27:07.529Z,5.18
2024-05-09T23:29:39.802Z,5.14
2024-05-09T23:32:11.530Z,5.10
2024-05-09T23:34:43.279Z,5.02
2024-05-09T23:37:14.909Z,5.04
2024-05-09T23:39:46.713Z,5.00
2024-05-09T23:42:18.212Z,4.96
2024-05-09T23:44:52.792Z,4.91
2024-05-09T23:47:24.177Z,4.87
2024-05-09T23:49:55.754Z,4.82
2024-05-09T23:52:28.398Z,4.75
2024-05-09T23:55:00.419Z,4.71
2024-05-09T23:57:32.471Z,4.69
